Time;durP1;ratioP1;P1;durP2;ratioP2;P2;SDS_P1;SDS_P2;PMS_P1;PMS_P2;Temp;Humidity;BMP_temperature;BMP_pressure;BME280_temperature;BME280_humidity;BME280_pressure;Samples;Min_cycle;Max_cycle;Signal;HPM_P1;HPM_P2
2022/12/30 00:01:26;;;;;;;;;;;;;;;;;;6309282;22;19903;-92
2022/12/30 00:06:27;;;;;;;;;;;;;;;;;;6300099;22;19918;-94
2022/12/30 00:08:53;;;;;;;;;;;;;;;;;;6279962;22;19937;-91
2022/12/30 00:37:53;;;;;;;;;;;;;;;;;;6281919;22;19907;-90
2022/12/30 00:40:19;;;;;;;;;;;;;;;;;;6279972;22;19906;-94
2022/12/30 00:45:30;;;;;;;;;;;;;;;;;;6289597;22;19919;-91
2022/12/30 00:47:56;;;;;;;;;;;;;;;;;;6307296;22;19919;-91
2022/12/30 00:58:37;;;;;;;;;;;;;;;;;;6299807;22;19915;-94
2022/12/30 01:01:03;;;;;;;;;;;;;;;;;;6277129;22;19922;-94
2022/12/30 01:03:29;;;;;;;;;;;;;;;;;;6277676;22;19915;-96
2022/12/30 01:05:55;;;;;;;;;;;;;;;;;;6303508;22;19937;-91
2022/12/30 01:08:21;;;;;;;;;;;;;;;;;;6273626;22;19915;-93
2022/12/30 01:10:47;;;;;;;;;;;;;;;;;;6298413;22;19918;-93
2022/12/30 01:13:13;;;;;;;;;;;;;;;;;;6275181;22;19949;-95
2022/12/30 01:15:39;;;;;;;;;;;;;;;;;;6275837;22;19925;-95
2022/12/30 01:18:05;;;;;;;;;;;;;;;;;;6295224;22;19902;-96
2022/12/30 01:20:31;;;;;;;;;;;;;;;;;;6270634;22;19921;-95
2022/12/30 01:22:57;;;;;;;;;;;;;;;;;;6292883;22;19915;-94
2022/12/30 01:25:23;;;;;;;;;;;;;;;;;;6265671;22;19915;-95
2022/12/30 01:27:49;;;;;;;;;;;;;;;;;;6269852;22;19937;-95
2022/12/30 01:30:14;;;;;;;;;;;;;;;;;;6293926;22;19919;-93
2022/12/30 01:32:41;;;;;;;;;;;;;;;;;;6296030;22;19930;-94
2022/12/30 01:35:07;;;;;;;;;;;;;;;;;;6295333;22;19915;-93
2022/12/30 01:37:33;;;;;;;;;;;;;;;;;;6271000;22;19914;-94
2022/12/30 01:39:59;;;;;;;;;;;;;;;;;;6268687;22;19938;-92
2022/12/30 01:42:25;;;;;;;;;;;;;;;;;;6275712;22;19989;-95
2022/12/30 01:44:51;;;;;;;;;;;;;;;;;;6273700;22;19915;-93
2022/12/30 01:47:17;;;;;;;;;;;;;;;;;;6274353;22;19954;-93
2022/12/30 01:49:43;;;;;;;;;;;;;;;;;;6276960;22;19949;-92
2022/12/30 01:52:09;;;;;;;;;;;;;;;;;;6276791;22;19915;-95
2022/12/30 01:54:35;;;;;;;;;;;;;;;;;;6278402;22;19914;-92
2022/12/30 01:57:01;;;;;;;;;;;;;;;;;;6280220;22;19915;-94
2022/12/30 01:59:27;;;;;;;;;;;;;;;;;;6280214;22;19926;-93
2022/12/30 02:01:53;;;;;;;;;;;;;;;;;;6304345;22;19949;-93
2022/12/30 02:04:19;;;;;;;;;;;;;;;;;;6239436;22;19935;-95
2022/12/30 02:06:45;;;;;;;;;;;;;;;;;;6278859;22;19915;-95
2022/12/30 02:09:11;;;;;;;;;;;;;;;;;;6301245;22;19915;-96
2022/12/30 02:11:37;;;;;;;;;;;;;;;;;;6272048;22;19959;-95
2022/12/30 02:14:03;;;;;;;;;;;;;;;;;;6300330;22;19915;-96
2022/12/30 02:16:30;;;;;;;;;;;;;;;;;;6270186;22;19950;-96
2022/12/30 02:18:56;;;;;;;;;;;;;;;;;;6269447;22;19919;-94
2022/12/30 02:21:22;;;;;;;;;;;;;;;;;;6265574;22;19968;-95
2022/12/30 02:23:48;;;;;;;;;;;;;;;;;;6265412;22;19961;-95
2022/12/30 02:26:14;;;;;;;;;;;;;;;;;;6265034;22;19918;-95
2022/12/30 02:28:40;;;;;;;;;;;;;;;;;;6265997;22;20040;-96
2022/12/30 02:31:06;;;;;;;;;;;;;;;;;;6265772;22;20203;-96
2022/12/30 02:33:32;;;;;;;;;;;;;;;;;;6264070;22;19954;-96
2022/12/30 02:35:58;;;;;;;;;;;;;;;;;;6268851;22;19926;-94
2022/12/30 02:38:24;;;;;;;;;;;;;;;;;;6267550;22;19914;-96
2022/12/30 02:46:19;;;;;;;;;;;;;;;;;;6297429;22;20352;-95
2022/12/30 02:48:45;;;;;;;;;;;;;;;;;;6296552;22;19915;-90
2022/12/30 02:53:56;;;;;;;;;;;;;;;;;;6297582;22;19938;-96
2022/12/30 02:56:22;;;;;;;;;;;;;;;;;;6272179;22;19914;-96
2022/12/30 02:58:48;;;;;;;;;;;;;;;;;;6298487;22;19958;-88
2022/12/30 03:03:59;;;;;;;;;;;;;;;;;;6297683;22;19915;-94
2022/12/30 03:06:25;;;;;;;;;;;;;;;;;;6271433;22;19915;-94
2022/12/30 03:08:51;;;;;;;;;;;;;;;;;;6271653;22;20104;-96
2022/12/30 03:11:17;;;;;;;;;;;;;;;;;;6272680;22;20230;-96
2022/12/30 03:13:43;;;;;;;;;;;;;;;;;;6297032;22;20252;-96
2022/12/30 03:16:09;;;;;;;;;;;;;;;;;;6270703;22;19922;-96
2022/12/30 03:18:35;;;;;;;;;;;;;;;;;;6268623;22;19954;-96
2022/12/30 03:21:01;;;;;;;;;;;;;;;;;;6267532;22;19923;-94
2022/12/30 03:28:56;;;;;;;;;;;;;;;;;;6287679;22;19914;-96
2022/12/30 03:31:22;;;;;;;;;;;;;;;;;;6265028;22;19926;-96
2022/12/30 03:33:48;;;;;;;;;;;;;;;;;;6263802;22;19926;-96
2022/12/30 03:36:14;;;;;;;;;;;;;;;;;;6265869;22;19915;-96
2022/12/30 03:38:40;;;;;;;;;;;;;;;;;;6263401;22;20221;-95
2022/12/30 03:41:06;;;;;;;;;;;;;;;;;;6292329;22;19922;-92
2022/12/30 03:43:32;;;;;;;;;;;;;;;;;;6266353;22;19915;-94
2022/12/30 03:45:58;;;;;;;;;;;;;;;;;;6269038;22;19919;-94
2022/12/30 03:48:24;;;;;;;;;;;;;;;;;;6289804;22;19921;-95
2022/12/30 03:50:50;;;;;;;;;;;;;;;;;;6262518;22;19926;-94
2022/12/30 03:53:16;;;;;;;;;;;;;;;;;;6264389;22;19915;-93
2022/12/30 03:55:42;;;;;;;;;;;;;;;;;;6267153;22;19915;-96
2022/12/30 03:58:08;;;;;;;;;;;;;;;;;;6268053;22;19919;-96
2022/12/30 04:00:34;;;;;;;;;;;;;;;;;;6296492;22;19914;-92
2022/12/30 04:03:00;;;;;;;;;;;;;;;;;;6278228;22;19957;-96
2022/12/30 04:05:26;;;;;;;;;;;;;;;;;;6303419;22;19937;-94
2022/12/30 04:07:52;;;;;;;;;;;;;;;;;;6279150;22;19974;-95
2022/12/30 04:10:18;;;;;;;;;;;;;;;;;;6303547;22;19922;-96
2022/12/30 04:12:44;;;;;;;;;;;;;;;;;;6300530;22;19915;-93
2022/12/30 04:15:10;;;;;;;;;;;;;;;;;;6274804;22;19921;-92
2022/12/30 04:17:36;;;;;;;;;;;;;;;;;;6274324;22;19921;-95
2022/12/30 04:20:02;;;;;;;;;;;;;;;;;;6304143;22;19914;-91
2022/12/30 04:22:30;;;;;;;;;;;;;;;;;;6281614;22;19915;-89
2022/12/30 04:24:55;;;;;;;;;;;;;;;;;;6258819;22;19960;-93
2022/12/30 04:27:22;;;;;;;;;;;;;;;;;;6265004;22;19946;-94
2022/12/30 04:29:47;;;;;;;;;;;;;;;;;;6243799;22;19920;-93
2022/12/30 04:32:13;;;;;;;;;;;;;;;;;;6240935;22;19946;-94
2022/12/30 04:34:39;;;;;;;;;;;;;;;;;;6241829;22;19922;-92
2022/12/30 04:37:05;;;;;;;;;;;;;;;;;;6265669;22;19994;-95
2022/12/30 04:39:31;;;;;;;;;;;;;;;;;;6241060;22;19915;-95
2022/12/30 04:41:57;;;;;;;;;;;;;;;;;;6266636;22;19942;-96
2022/12/30 04:44:24;;;;;;;;;;;;;;;;;;6244821;22;19915;-96
2022/12/30 04:46:49;;;;;;;;;;;;;;;;;;6244005;22;19927;-96
2022/12/30 04:49:15;;;;;;;;;;;;;;;;;;6269999;22;20166;-96
2022/12/30 04:51:42;;;;;;;;;;;;;;;;;;6242436;22;19921;-95
2022/12/30 04:54:08;;;;;;;;;;;;;;;;;;6267740;22;19915;-96
2022/12/30 04:56:34;;;;;;;;;;;;;;;;;;6245522;22;20000;-96
2022/12/30 04:59:00;;;;;;;;;;;;;;;;;;6245352;22;19899;-96
2022/12/30 05:01:26;;;;;;;;;;;;;;;;;;6244659;22;19926;-95
2022/12/30 05:03:52;;;;;;;;;;;;;;;;;;6243774;22;19915;-96
2022/12/30 05:06:18;;;;;;;;;;;;;;;;;;6236415;22;19920;-96
2022/12/30 05:08:44;;;;;;;;;;;;;;;;;;6262073;22;19915;-96
2022/12/30 05:11:10;;;;;;;;;;;;;;;;;;6240340;22;19920;-96
2022/12/30 05:13:36;;;;;;;;;;;;;;;;;;6239316;22;19919;-92
2022/12/30 05:16:02;;;;;;;;;;;;;;;;;;6241508;22;19958;-93
2022/12/30 05:18:28;;;;;;;;;;;;;;;;;;6237872;22;19938;-95
2022/12/30 05:20:54;;;;;;;;;;;;;;;;;;6233848;22;19915;-96
2022/12/30 05:26:14;;;;;;;;;;;;;;;;;;6254215;22;19915;-93
2022/12/30 05:28:40;;;;;;;;;;;;;;;;;;6227485;22;19919;-96
2022/12/30 05:31:06;;;;;;;;;;;;;;;;;;6227243;22;19923;-96
2022/12/30 05:33:32;;;;;;;;;;;;;;;;;;6227696;22;19919;-94
2022/12/30 05:35:58;;;;;;;;;;;;;;;;;;6252853;22;19923;-96
2022/12/30 05:38:23;;;;;;;;;;;;;;;;;;6227290;22;19915;-95
2022/12/30 05:40:49;;;;;;;;;;;;;;;;;;6233767;22;19953;-94
2022/12/30 05:43:15;;;;;;;;;;;;;;;;;;6231456;22;19915;-94
2022/12/30 05:45:41;;;;;;;;;;;;;;;;;;6238598;22;19915;-91
2022/12/30 05:48:07;;;;;;;;;;;;;;;;;;6241785;22;19922;-96
2022/12/30 05:50:33;;;;;;;;;;;;;;;;;;6260754;22;19920;-94
2022/12/30 05:52:59;;;;;;;;;;;;;;;;;;6261511;22;20257;-94
2022/12/30 05:55:25;;;;;;;;;;;;;;;;;;6233855;22;19922;-96
2022/12/30 05:57:51;;;;;;;;;;;;;;;;;;6236261;22;19922;-93
2022/12/30 06:00:17;;;;;;;;;;;;;;;;;;6238856;22;20268;-93
2022/12/30 06:02:42;;;;;;;;;;;;;;;;;;6233752;22;19935;-93
2022/12/30 06:05:08;;;;;;;;;;;;;;;;;;6260195;22;20271;-96
2022/12/30 06:07:34;;;;;;;;;;;;;;;;;;6236855;22;20348;-94
2022/12/30 06:10:00;;;;;;;;;;;;;;;;;;6237442;22;19919;-93
2022/12/30 06:12:26;;;;;;;;;;;;;;;;;;6261829;22;19974;-93
2022/12/30 06:14:52;;;;;;;;;;;;;;;;;;6235170;22;19915;-96
2022/12/30 06:17:18;;;;;;;;;;;;;;;;;;6232782;22;19984;-96
2022/12/30 06:19:44;;;;;;;;;;;;;;;;;;6232642;22;19916;-96
2022/12/30 06:22:10;;;;;;;;;;;;;;;;;;6233330;22;19930;-96
2022/12/30 06:24:35;;;;;;;;;;;;;;;;;;6229552;22;19915;-96
2022/12/30 06:27:01;;;;;;;;;;;;;;;;;;6231751;22;19919;-96
2022/12/30 06:29:27;;;;;;;;;;;;;;;;;;6231951;22;19973;-94
2022/12/30 06:31:53;;;;;;;;;;;;;;;;;;6234494;22;19915;-95
2022/12/30 06:34:19;;;;;;;;;;;;;;;;;;6259158;22;19915;-95
2022/12/30 06:36:45;;;;;;;;;;;;;;;;;;6232455;22;20253;-95
2022/12/30 06:39:11;;;;;;;;;;;;;;;;;;6229181;22;19916;-93
2022/12/30 06:41:37;;;;;;;;;;;;;;;;;;6260688;22;19920;-94
2022/12/30 06:44:03;;;;;;;;;;;;;;;;;;6241185;22;19926;-96
2022/12/30 06:46:28;;;;;;;;;;;;;;;;;;6237493;22;19920;-95
2022/12/30 06:48:54;;;;;;;;;;;;;;;;;;6237087;22;19955;-92
2022/12/30 06:51:20;;;;;;;;;;;;;;;;;;6239630;22;19934;-96
2022/12/30 06:53:46;;;;;;;;;;;;;;;;;;6236531;22;19957;-96
2022/12/30 06:56:12;;;;;;;;;;;;;;;;;;6235072;22;20253;-93
2022/12/30 06:58:38;;;;;;;;;;;;;;;;;;6238976;22;19916;-94
2022/12/30 07:01:04;;;;;;;;;;;;;;;;;;6237237;22;20041;-93
2022/12/30 07:03:30;;;;;;;;;;;;;;;;;;6240890;22;19960;-94
2022/12/30 07:05:56;;;;;;;;;;;;;;;;;;6239011;22;19950;-93
2022/12/30 07:08:22;;;;;;;;;;;;;;;;;;6238880;22;20274;-94
2022/12/30 07:10:47;;;;;;;;;;;;;;;;;;6240459;22;19919;-93
2022/12/30 07:13:13;;;;;;;;;;;;;;;;;;6267812;22;19915;-96
2022/12/30 07:15:39;;;;;;;;;;;;;;;;;;6242148;22;19915;-96
2022/12/30 07:18:05;;;;;;;;;;;;;;;;;;6243431;22;20350;-96
2022/12/30 07:20:31;;;;;;;;;;;;;;;;;;6242047;22;20332;-96
2022/12/30 07:22:57;;;;;;;;;;;;;;;;;;6238829;22;19923;-96
2022/12/30 07:25:23;;;;;;;;;;;;;;;;;;6233839;22;19915;-96
2022/12/30 07:27:49;;;;;;;;;;;;;;;;;;6237118;22;19915;-95
2022/12/30 07:30:15;;;;;;;;;;;;;;;;;;6237176;22;19943;-96
2022/12/30 07:32:41;;;;;;;;;;;;;;;;;;6236644;22;19916;-95
2022/12/30 07:35:07;;;;;;;;;;;;;;;;;;6237290;22;19946;-94
2022/12/30 07:37:33;;;;;;;;;;;;;;;;;;6236941;22;19915;-96
2022/12/30 07:39:59;;;;;;;;;;;;;;;;;;6236947;22;19922;-95
2022/12/30 07:42:25;;;;;;;;;;;;;;;;;;6237410;22;19916;-96
2022/12/30 07:44:51;;;;;;;;;;;;;;;;;;6237062;22;19965;-94
2022/12/30 07:47:17;;;;;;;;;;;;;;;;;;6262516;22;20349;-94
2022/12/30 07:49:43;;;;;;;;;;;;;;;;;;6259240;22;19919;-94
2022/12/30 07:52:08;;;;;;;;;;;;;;;;;;6232969;22;19922;-96
2022/12/30 07:54:34;;;;;;;;;;;;;;;;;;6261500;22;19915;-96
2022/12/30 07:57:00;;;;;;;;;;;;;;;;;;6238954;22;19973;-96
2022/12/30 07:59:26;;;;;;;;;;;;;;;;;;6237252;22;19986;-96
2022/12/30 08:01:52;;;;;;;;;;;;;;;;;;6233292;22;20227;-93
2022/12/30 08:04:18;;;;;;;;;;;;;;;;;;6230876;22;20341;-96
2022/12/30 08:06:44;;;;;;;;;;;;;;;;;;6233967;22;19922;-96
2022/12/30 08:09:10;;;;;;;;;;;;;;;;;;6265328;22;19920;-92
2022/12/30 08:11:36;;;;;;;;;;;;;;;;;;6236925;22;19915;-95
2022/12/30 08:14:01;;;;;;;;;;;;;;;;;;6237591;22;19937;-95
2022/12/30 08:16:27;;;;;;;;;;;;;;;;;;6266382;22;19927;-94
2022/12/30 08:18:53;;;;;;;;;;;;;;;;;;6234447;22;19921;-95
2022/12/30 08:21:19;;;;;;;;;;;;;;;;;;6229976;22;19919;-96
2022/12/30 08:23:48;;;;;;;;;;;;;;;;;;6257661;22;19915;-96
2022/12/30 08:26:14;;;;;;;;;;;;;;;;;;6232885;22;19959;-94
2022/12/30 08:28:40;;;;;;;;;;;;;;;;;;6260039;22;19915;-96
2022/12/30 08:31:06;;;;;;;;;;;;;;;;;;6230450;22;19931;-95
2022/12/30 08:33:32;;;;;;;;;;;;;;;;;;6253826;22;20230;-95
2022/12/30 08:35:58;;;;;;;;;;;;;;;;;;6229251;22;19915;-95
2022/12/30 08:38:24;;;;;;;;;;;;;;;;;;6252595;22;19947;-95
2022/12/30 08:40:50;;;;;;;;;;;;;;;;;;6227990;22;19939;-93
2022/12/30 08:43:18;;;;;;;;;;;;;;;;;;6229368;22;20173;-96
2022/12/30 08:45:44;;;;;;;;;;;;;;;;;;6231768;22;19922;-94
2022/12/30 08:48:10;;;;;;;;;;;;;;;;;;6229954;22;19955;-92
2022/12/30 08:50:36;;;;;;;;;;;;;;;;;;6232808;22;19963;-93
2022/12/30 08:53:02;;;;;;;;;;;;;;;;;;6234154;22;19958;-96
2022/12/30 08:55:28;;;;;;;;;;;;;;;;;;6258278;22;19915;-96
2022/12/30 08:57:54;;;;;;;;;;;;;;;;;;6232477;22;19938;-96
2022/12/30 09:00:20;;;;;;;;;;;;;;;;;;6232773;22;19915;-96
2022/12/30 09:02:46;;;;;;;;;;;;;;;;;;6228789;22;20343;-95
2022/12/30 09:05:12;;;;;;;;;;;;;;;;;;6230211;22;20233;-96
2022/12/30 09:07:37;;;;;;;;;;;;;;;;;;6231634;22;19915;-95
2022/12/30 09:10:06;;;;;;;;;;;;;;;;;;6231061;22;19927;-96
2022/12/30 09:12:32;;;;;;;;;;;;;;;;;;6229165;22;19961;-96
2022/12/30 09:14:58;;;;;;;;;;;;;;;;;;6229615;22;20279;-91
2022/12/30 09:17:24;;;;;;;;;;;;;;;;;;6228415;22;19987;-96
2022/12/30 09:19:49;;;;;;;;;;;;;;;;;;6227642;22;19920;-96
2022/12/30 09:22:15;;;;;;;;;;;;;;;;;;6226296;22;19915;-95
2022/12/30 09:24:41;;;;;;;;;;;;;;;;;;6226678;22;20329;-96
2022/12/30 09:27:07;;;;;;;;;;;;;;;;;;6228243;22;19938;-94
2022/12/30 09:29:33;;;;;;;;;;;;;;;;;;6228918;22;19926;-96
2022/12/30 09:31:59;;;;;;;;;;;;;;;;;;6228655;22;19923;-94
2022/12/30 09:34:25;;;;;;;;;;;;;;;;;;6222065;22;20379;-95
2022/12/30 09:36:51;;;;;;;;;;;;;;;;;;6224957;22;19945;-91
2022/12/30 09:39:17;;;;;;;;;;;;;;;;;;6229945;22;20256;-96
2022/12/30 09:44:27;;;;;;;;;;;;;;;;;;6262187;22;19915;-95
2022/12/30 09:46:53;;;;;;;;;;;;;;;;;;6238518;22;19916;-95
2022/12/30 09:49:19;;;;;;;;;;;;;;;;;;6232469;22;19903;-96
2022/12/30 09:51:45;;;;;;;;;;;;;;;;;;6232573;22;19915;-96
2022/12/30 09:54:11;;;;;;;;;;;;;;;;;;6232371;22;19921;-96
2022/12/30 09:56:37;;;;;;;;;;;;;;;;;;6232020;22;19919;-96
2022/12/30 09:59:02;;;;;;;;;;;;;;;;;;6232449;22;19994;-96
2022/12/30 10:01:29;;;;;;;;;;;;;;;;;;6232189;22;20392;-96
2022/12/30 10:03:55;;;;;;;;;;;;;;;;;;6234255;22;20246;-95
2022/12/30 10:06:21;;;;;;;;;;;;;;;;;;6233295;22;19955;-91
2022/12/30 10:08:47;;;;;;;;;;;;;;;;;;6236452;22;19943;-95
2022/12/30 10:11:26;;;;;;;;;;;;;;;;;;6235004;22;20380;-94
2022/12/30 10:13:52;;;;;;;;;;;;;;;;;;6241957;22;19915;-95
2022/12/30 10:16:18;;;;;;;;;;;;;;;;;;6238143;22;19915;-96
2022/12/30 10:18:44;;;;;;;;;;;;;;;;;;6238187;22;19915;-95
2022/12/30 10:21:10;;;;;;;;;;;;;;;;;;6238978;22;19964;-91
2022/12/30 10:23:36;;;;;;;;;;;;;;;;;;6237150;22;19981;-96
2022/12/30 10:26:02;;;;;;;;;;;;;;;;;;6240366;22;19923;-92
2022/12/30 10:28:28;;;;;;;;;;;;;;;;;;6267791;22;20002;-93
2022/12/30 10:30:54;;;;;;;;;;;;;;;;;;6226490;22;19934;-91
2022/12/30 10:33:20;;;;;;;;;;;;;;;;;;6295069;22;19922;-95
2022/12/30 10:35:46;;;;;;;;;;;;;;;;;;6265834;22;20312;-96
2022/12/30 10:38:12;;;;;;;;;;;;;;;;;;6265783;22;19925;-93
2022/12/30 10:40:38;;;;;;;;;;;;;;;;;;6265670;22;19915;-92
2022/12/30 10:43:04;;;;;;;;;;;;;;;;;;6276387;22;19915;-93
2022/12/30 10:45:30;;;;;;;;;;;;;;;;;;6274754;22;20324;-92
2022/12/30 10:47:56;;;;;;;;;;;;;;;;;;6276287;22;19919;-94
2022/12/30 10:50:22;;;;;;;;;;;;;;;;;;6277549;22;19923;-91
2022/12/30 10:52:48;;;;;;;;;;;;;;;;;;6277326;22;19950;-90
2022/12/30 10:55:14;;;;;;;;;;;;;;;;;;6278654;22;19909;-93
2022/12/30 10:57:40;;;;;;;;;;;;;;;;;;6302668;22;19914;-94
2022/12/30 11:00:06;;;;;;;;;;;;;;;;;;6300505;22;19926;-95
2022/12/30 11:02:32;;;;;;;;;;;;;;;;;;6276530;22;19926;-96
2022/12/30 11:04:59;;;;;;;;;;;;;;;;;;6276278;22;19903;-96
2022/12/30 11:07:25;;;;;;;;;;;;;;;;;;6300876;22;19921;-94
2022/12/30 11:09:51;;;;;;;;;;;;;;;;;;6306483;22;19922;-89
2022/12/30 11:15:02;;;;;;;;;;;;;;;;;;6304883;22;19951;-95
2022/12/30 11:17:28;;;;;;;;;;;;;;;;;;6277692;22;19937;-96
2022/12/30 11:19:54;;;;;;;;;;;;;;;;;;6277769;22;19899;-92
2022/12/30 11:22:20;;;;;;;;;;;;;;;;;;6305503;22;19915;-94
2022/12/30 11:24:46;;;;;;;;;;;;;;;;;;6302175;22;19959;-94
2022/12/30 11:27:12;;;;;;;;;;;;;;;;;;6276250;22;19925;-93
2022/12/30 11:29:38;;;;;;;;;;;;;;;;;;6276369;22;19919;-93
2022/12/30 11:32:04;;;;;;;;;;;;;;;;;;6275057;22;19915;-95
2022/12/30 11:34:30;;;;;;;;;;;;;;;;;;6277505;22;19915;-89
2022/12/30 11:36:56;;;;;;;;;;;;;;;;;;6275965;22;19915;-92
2022/12/30 11:39:22;;;;;;;;;;;;;;;;;;6274250;22;19963;-96
2022/12/30 11:41:48;;;;;;;;;;;;;;;;;;6277182;22;20252;-96
2022/12/30 11:44:14;;;;;;;;;;;;;;;;;;6305247;22;19915;-93
2022/12/30 11:46:40;;;;;;;;;;;;;;;;;;6276127;22;19989;-96
2022/12/30 11:49:06;;;;;;;;;;;;;;;;;;6278035;22;19941;-93
2022/12/30 11:51:32;;;;;;;;;;;;;;;;;;6300799;22;19919;-90
2022/12/30 11:53:58;;;;;;;;;;;;;;;;;;6278612;22;19919;-93
2022/12/30 11:56:24;;;;;;;;;;;;;;;;;;6276250;22;19915;-95
2022/12/30 11:58:50;;;;;;;;;;;;;;;;;;6276097;22;19967;-90
2022/12/30 12:01:16;;;;;;;;;;;;;;;;;;6303834;22;19960;-91
2022/12/30 12:03:42;;;;;;;;;;;;;;;;;;6277049;22;19950;-95
2022/12/30 12:06:08;;;;;;;;;;;;;;;;;;6275390;22;19952;-96
2022/12/30 12:08:34;;;;;;;;;;;;;;;;;;6267255;22;19903;-93
2022/12/30 12:11:00;;;;;;;;;;;;;;;;;;6306274;22;19933;-88
2022/12/30 12:13:26;;;;;;;;;;;;;;;;;;6305583;22;19934;-95
2022/12/30 12:15:52;;;;;;;;;;;;;;;;;;6278038;22;19930;-88
2022/12/30 12:18:18;;;;;;;;;;;;;;;;;;6306710;22;19934;-95
2022/12/30 12:20:44;;;;;;;;;;;;;;;;;;6306380;22;19915;-94
2022/12/30 12:23:10;;;;;;;;;;;;;;;;;;6280733;22;19949;-92
2022/12/30 12:25:36;;;;;;;;;;;;;;;;;;6282364;22;19931;-90
2022/12/30 12:35:49;;;;;;;;;;;;;;;;;;6251252;22;19922;-95
2022/12/30 12:38:15;;;;;;;;;;;;;;;;;;6305911;22;19923;-90
2022/12/30 12:40:43;;;;;;;;;;;;;;;;;;6303474;22;19915;-94
2022/12/30 12:43:09;;;;;;;;;;;;;;;;;;6276762;22;19926;-94
2022/12/30 12:45:35;;;;;;;;;;;;;;;;;;6304223;22;19914;-94
2022/12/30 12:48:01;;;;;;;;;;;;;;;;;;6297141;22;19915;-95
2022/12/30 12:50:27;;;;;;;;;;;;;;;;;;6274752;22;19923;-92
2022/12/30 12:52:53;;;;;;;;;;;;;;;;;;6277703;22;19903;-94
2022/12/30 12:55:19;;;;;;;;;;;;;;;;;;6279699;22;19903;-90
2022/12/30 12:57:45;;;;;;;;;;;;;;;;;;6247608;22;20292;-96
2022/12/30 13:00:11;;;;;;;;;;;;;;;;;;6238662;22;19919;-96
2022/12/30 13:02:37;;;;;;;;;;;;;;;;;;6270275;22;19969;-96
2022/12/30 13:05:07;;;;;;;;;;;;;;;;;;6243263;22;19916;-96
2022/12/30 13:07:33;;;;;;;;;;;;;;;;;;6245603;22;20226;-96
2022/12/30 13:09:59;;;;;;;;;;;;;;;;;;6242669;22;19919;-96
2022/12/30 13:12:25;;;;;;;;;;;;;;;;;;6246010;22;19915;-92
2022/12/30 13:14:51;;;;;;;;;;;;;;;;;;6251050;22;19971;-91
2022/12/30 13:17:17;;;;;;;;;;;;;;;;;;6273963;22;19914;-91
2022/12/30 13:19:43;;;;;;;;;;;;;;;;;;6247064;22;19961;-95
2022/12/30 13:22:09;;;;;;;;;;;;;;;;;;6248619;22;19969;-92
2022/12/30 13:24:35;;;;;;;;;;;;;;;;;;6249696;22;19921;-96
2022/12/30 13:27:01;;;;;;;;;;;;;;;;;;6249113;22;19915;-89
2022/12/30 13:29:27;;;;;;;;;;;;;;;;;;6249185;22;19919;-94
2022/12/30 13:31:53;;;;;;;;;;;;;;;;;;6252848;22;19919;-94
2022/12/30 13:34:19;;;;;;;;;;;;;;;;;;6252522;22;19964;-95
2022/12/30 13:36:45;;;;;;;;;;;;;;;;;;6252625;22;19963;-94
2022/12/30 13:39:11;;;;;;;;;;;;;;;;;;6251637;22;19915;-92
2022/12/30 13:41:37;;;;;;;;;;;;;;;;;;6251982;22;19907;-93
2022/12/30 13:44:02;;;;;;;;;;;;;;;;;;6251728;22;19959;-92
2022/12/30 13:46:29;;;;;;;;;;;;;;;;;;6275400;22;19908;-94
2022/12/30 13:48:55;;;;;;;;;;;;;;;;;;6250995;22;19925;-92
2022/12/30 13:51:21;;;;;;;;;;;;;;;;;;6250216;22;19919;-93
2022/12/30 13:53:47;;;;;;;;;;;;;;;;;;6251451;22;19910;-91
2022/12/30 13:56:13;;;;;;;;;;;;;;;;;;6277199;22;19925;-94
2022/12/30 13:58:39;;;;;;;;;;;;;;;;;;6244130;23;19926;-92
2022/12/30 14:01:05;;;;;;;;;;;;;;;;;;6243779;22;19916;-93
2022/12/30 14:03:31;;;;;;;;;;;;;;;;;;6269132;23;19910;-95
2022/12/30 14:05:57;;;;;;;;;;;;;;;;;;6269091;23;19951;-91
2022/12/30 14:08:23;;;;;;;;;;;;;;;;;;6243052;23;19962;-95
2022/12/30 14:10:49;;;;;;;;;;;;;;;;;;6239727;23;19919;-95
2022/12/30 14:13:15;;;;;;;;;;;;;;;;;;6244255;22;19926;-96
2022/12/30 14:15:41;;;;;;;;;;;;;;;;;;6240085;23;19975;-95
2022/12/30 14:18:07;;;;;;;;;;;;;;;;;;6261310;23;19916;-96
2022/12/30 14:20:33;;;;;;;;;;;;;;;;;;6242234;23;19915;-93
2022/12/30 14:22:59;;;;;;;;;;;;;;;;;;6241503;23;19915;-96
2022/12/30 14:25:25;;;;;;;;;;;;;;;;;;6239130;23;19922;-96
2022/12/30 14:27:51;;;;;;;;;;;;;;;;;;6240974;23;19915;-92
2022/12/30 14:30:17;;;;;;;;;;;;;;;;;;6232224;23;19927;-96
2022/12/30 14:32:43;;;;;;;;;;;;;;;;;;6235581;23;19987;-96
2022/12/30 14:35:09;;;;;;;;;;;;;;;;;;6232264;23;19923;-96
2022/12/30 14:37:34;;;;;;;;;;;;;;;;;;6232620;23;19915;-96
2022/12/30 14:40:00;;;;;;;;;;;;;;;;;;6236654;23;19923;-95
2022/12/30 14:42:26;;;;;;;;;;;;;;;;;;6241782;23;19916;-91
2022/12/30 14:44:52;;;;;;;;;;;;;;;;;;6244712;22;19926;-87
2022/12/30 14:47:18;;;;;;;;;;;;;;;;;;6241801;23;20310;-96
2022/12/30 14:49:44;;;;;;;;;;;;;;;;;;6238148;23;20235;-93
2022/12/30 14:52:10;;;;;;;;;;;;;;;;;;6239444;23;19991;-95
2022/12/30 14:54:36;;;;;;;;;;;;;;;;;;6243811;23;19916;-93
2022/12/30 14:57:02;;;;;;;;;;;;;;;;;;6240937;23;19942;-96
2022/12/30 14:59:28;;;;;;;;;;;;;;;;;;6243890;23;19930;-96
2022/12/30 15:01:54;;;;;;;;;;;;;;;;;;6243288;23;19904;-96
2022/12/30 15:04:20;;;;;;;;;;;;;;;;;;6241340;23;19916;-94
2022/12/30 15:06:46;;;;;;;;;;;;;;;;;;6240781;23;19957;-96
2022/12/30 15:09:12;;;;;;;;;;;;;;;;;;6237010;23;19915;-94
2022/12/30 15:11:38;;;;;;;;;;;;;;;;;;6243000;23;19919;-96
2022/12/30 15:14:04;;;;;;;;;;;;;;;;;;6266979;23;20360;-96
2022/12/30 15:16:34;;;;;;;;;;;;;;;;;;6234490;23;19915;-96
2022/12/30 15:19:00;;;;;;;;;;;;;;;;;;6243823;22;19920;-94
2022/12/30 15:21:26;;;;;;;;;;;;;;;;;;6267288;23;19927;-96
2022/12/30 15:23:51;;;;;;;;;;;;;;;;;;6239752;23;19915;-96
2022/12/30 15:26:17;;;;;;;;;;;;;;;;;;6268379;23;19916;-88
2022/12/30 15:28:43;;;;;;;;;;;;;;;;;;6245761;23;19927;-91
2022/12/30 15:31:09;;;;;;;;;;;;;;;;;;6244447;23;19935;-91
2022/12/30 15:36:11;;;;;;;;;;;;;;;;;;6315118;22;19984;-93
2022/12/30 15:38:37;;;;;;;;;;;;;;;;;;6277048;22;19982;-94
2022/12/30 15:41:03;;;;;;;;;;;;;;;;;;6275758;22;19918;-94
2022/12/30 15:43:29;;;;;;;;;;;;;;;;;;6278483;22;19968;-91
2022/12/30 15:45:57;;;;;;;;;;;;;;;;;;6287185;22;22527;-96
2022/12/30 15:48:23;;;;;;;;;;;;;;;;;;6278957;22;19953;-91
2022/12/30 15:50:49;;;;;;;;;;;;;;;;;;6275608;22;19919;-91
2022/12/30 15:53:15;;;;;;;;;;;;;;;;;;6301144;22;19915;-94
2022/12/30 15:55:41;;;;;;;;;;;;;;;;;;6269173;22;20041;-95
2022/12/30 15:58:07;;;;;;;;;;;;;;;;;;6264932;22;19930;-94
2022/12/30 16:00:33;;;;;;;;;;;;;;;;;;6265068;22;19922;-96
2022/12/30 16:02:59;;;;;;;;;;;;;;;;;;6244510;22;19920;-90
2022/12/30 16:05:25;;;;;;;;;;;;;;;;;;6216755;22;19926;-91
2022/12/30 16:07:51;;;;;;;;;;;;;;;;;;6244435;22;19939;-96
2022/12/30 16:10:17;;;;;;;;;;;;;;;;;;6244558;22;19920;-93
2022/12/30 16:12:43;;;;;;;;;;;;;;;;;;6241624;22;19934;-95
2022/12/30 16:20:20;;;;;;;;;;;;;;;;;;6324557;22;19929;-90
2022/12/30 16:22:46;;;;;;;;;;;;;;;;;;6223260;22;19994;-94
2022/12/30 16:25:13;;;;;;;;;;;;;;;;;;6240073;22;19923;-89
2022/12/30 16:27:39;;;;;;;;;;;;;;;;;;6210138;22;19956;-95
2022/12/30 16:30:05;;;;;;;;;;;;;;;;;;6274658;22;19906;-91
2022/12/30 16:32:30;;;;;;;;;;;;;;;;;;6277103;22;19903;-96
2022/12/30 16:34:56;;;;;;;;;;;;;;;;;;6252956;22;19967;-91
2022/12/30 16:37:22;;;;;;;;;;;;;;;;;;6259352;22;20324;-91
2022/12/30 16:42:23;;;;;;;;;;;;;;;;;;6240641;23;19908;-92
2022/12/30 16:44:49;;;;;;;;;;;;;;;;;;6215968;23;19970;-96
2022/12/30 16:47:15;;;;;;;;;;;;;;;;;;6213626;23;19916;-95
2022/12/30 16:49:41;;;;;;;;;;;;;;;;;;6195649;22;19926;-93
2022/12/30 16:52:07;;;;;;;;;;;;;;;;;;6296562;22;19919;-96
2022/12/30 16:54:33;;;;;;;;;;;;;;;;;;6271911;22;19938;-93
2022/12/30 16:56:59;;;;;;;;;;;;;;;;;;6288452;22;19963;-96
2022/12/30 16:59:26;;;;;;;;;;;;;;;;;;6298604;22;19903;-96
2022/12/30 17:01:52;;;;;;;;;;;;;;;;;;6272785;22;20158;-90
2022/12/30 17:04:18;;;;;;;;;;;;;;;;;;6270773;22;19919;-94
2022/12/30 17:06:44;;;;;;;;;;;;;;;;;;6270895;22;19903;-96
2022/12/30 17:09:10;;;;;;;;;;;;;;;;;;6271447;22;19922;-95
2022/12/30 17:11:39;;;;;;;;;;;;;;;;;;6272392;22;19907;-92
2022/12/30 17:14:05;;;;;;;;;;;;;;;;;;6271832;22;19946;-96
2022/12/30 17:16:31;;;;;;;;;;;;;;;;;;6271652;22;19915;-93
2022/12/30 17:18:57;;;;;;;;;;;;;;;;;;6269686;22;19922;-96
2022/12/30 17:21:23;;;;;;;;;;;;;;;;;;6270274;22;19915;-95
2022/12/30 17:23:49;;;;;;;;;;;;;;;;;;6271294;22;19943;-93
2022/12/30 17:26:15;;;;;;;;;;;;;;;;;;6271433;22;19922;-92
2022/12/30 17:28:41;;;;;;;;;;;;;;;;;;6296568;22;19903;-95
2022/12/30 17:31:10;;;;;;;;;;;;;;;;;;6270939;22;19927;-96
2022/12/30 17:33:36;;;;;;;;;;;;;;;;;;6294031;22;19927;-91
2022/12/30 17:36:02;;;;;;;;;;;;;;;;;;6267873;22;19922;-95
2022/12/30 17:38:28;;;;;;;;;;;;;;;;;;6270802;22;19915;-94
2022/12/30 17:40:54;;;;;;;;;;;;;;;;;;6268358;22;19919;-96
2022/12/30 17:43:20;;;;;;;;;;;;;;;;;;6292104;22;19954;-96
2022/12/30 17:45:46;;;;;;;;;;;;;;;;;;6263828;22;19923;-95
2022/12/30 17:48:12;;;;;;;;;;;;;;;;;;6292682;22;19915;-95
2022/12/30 17:50:40;;;;;;;;;;;;;;;;;;6266331;22;19942;-96
2022/12/30 17:53:06;;;;;;;;;;;;;;;;;;6268669;22;19929;-95
2022/12/30 17:55:32;;;;;;;;;;;;;;;;;;6264061;22;19915;-96
2022/12/30 17:57:57;;;;;;;;;;;;;;;;;;6266678;22;19915;-94
2022/12/30 18:00:23;;;;;;;;;;;;;;;;;;6262144;22;20289;-94